Time;durP1;ratioP1;P1;durP2;ratioP2;P2;SDS_P1;SDS_P2;PMS_P1;PMS_P2;Temp;Humidity;BMP_temperature;BMP_pressure;BME280_temperature;BME280_humidity;BME280_pressure;Samples;Min_cycle;Max_cycle;Signal;HPM_P1;HPM_P2
2023/10/17 00:01:15;;;;;;;1.93;1.83;;;6.10;99.90;;;;;;5078960;28;20848;-56
2023/10/17 00:03:45;;;;;;;3.63;1.93;;;6.10;99.90;;;;;;5090092;28;20200;-56
2023/10/17 00:06:16;;;;;;;2.80;2.57;;;6.10;99.90;;;;;;5090366;28;20287;-56
2023/10/17 00:08:44;;;;;;;2.00;1.90;;;6.00;99.90;;;;;;5091249;28;20217;-56
2023/10/17 00:11:21;;;;;;;2.70;1.60;;;5.90;99.90;;;;;;5082064;28;20252;-55
2023/10/17 00:14:04;;;;;;;2.00;1.77;;;5.90;99.90;;;;;;5091016;28;20753;-55
2023/10/17 00:16:37;;;;;;;3.13;2.47;;;5.80;99.90;;;;;;5090529;28;20207;-56
2023/10/17 00:19:08;;;;;;;1.87;1.77;;;5.70;99.90;;;;;;5081136;28;20242;-55
2023/10/17 00:21:37;;;;;;;3.17;2.20;;;5.60;99.90;;;;;;5083605;28;20620;-55
2023/10/17 00:24:08;;;;;;;2.73;2.27;;;5.60;99.90;;;;;;5090849;28;20190;-55
2023/10/17 00:26:37;;;;;;;2.10;2.00;;;5.60;99.90;;;;;;5091179;28;20235;-56
2023/10/17 00:29:07;;;;;;;2.40;2.13;;;5.60;99.90;;;;;;5090903;28;20333;-55
2023/10/17 00:31:35;;;;;;;2.30;2.20;;;5.60;99.90;;;;;;5091247;28;20221;-56
2023/10/17 00:34:12;;;;;;;2.87;2.53;;;5.60;99.90;;;;;;5081681;28;20222;-55
2023/10/17 00:36:48;;;;;;;3.57;2.83;;;5.40;99.90;;;;;;5090656;28;20205;-55
2023/10/17 00:39:17;;;;;;;4.13;1.97;;;5.40;99.90;;;;;;5090902;28;20241;-56
2023/10/17 00:41:50;;;;;;;2.37;2.03;;;5.40;99.90;;;;;;5090765;28;20595;-55
2023/10/17 00:44:27;;;;;;;2.63;2.43;;;5.40;99.90;;;;;;5087747;28;20201;-56
2023/10/17 00:46:55;;;;;;;2.03;1.93;;;5.40;99.90;;;;;;5085713;28;20240;-56
2023/10/17 00:49:23;;;;;;;2.63;2.43;;;5.40;99.90;;;;;;5090505;28;20225;-56
2023/10/17 00:51:55;;;;;;;2.60;2.40;;;5.30;99.90;;;;;;5089070;28;20194;-55
2023/10/17 00:54:24;;;;;;;3.33;2.70;;;5.30;99.90;;;;;;5090358;28;20832;-56
2023/10/17 00:56:54;;;;;;;4.50;2.23;;;5.40;99.90;;;;;;5090063;28;20243;-55
2023/10/17 00:59:24;;;;;;;2.40;2.20;;;5.40;99.90;;;;;;5082216;28;20686;-56
2023/10/17 01:01:51;;;;;;;4.17;2.70;;;5.30;99.90;;;;;;5090695;28;20208;-56
2023/10/17 01:04:19;;;;;;;3.13;2.90;;;5.30;99.90;;;;;;5090230;28;20252;-55
2023/10/17 01:06:53;;;;;;;3.00;2.77;;;5.30;99.90;;;;;;5083066;28;20203;-55
2023/10/17 01:09:24;;;;;;;2.70;2.30;;;5.30;99.90;;;;;;5082601;28;20773;-56
2023/10/17 01:11:54;;;;;;;2.70;2.57;;;5.30;99.90;;;;;;5090427;28;20197;-56
2023/10/17 01:14:23;;;;;;;2.57;2.47;;;5.20;99.90;;;;;;5091043;28;20626;-55
2023/10/17 01:16:52;;;;;;;4.43;2.83;;;5.20;99.90;;;;;;5094937;28;20213;-56
2023/10/17 01:19:20;;;;;;;2.40;2.20;;;5.20;99.90;;;;;;5094031;28;20632;-56
2023/10/17 01:21:47;;;;;;;1.97;1.87;;;5.20;99.90;;;;;;5090467;28;20593;-56
2023/10/17 01:24:16;;;;;;;3.40;2.20;;;5.20;99.90;;;;;;5092285;28;20725;-56
2023/10/17 01:26:45;;;;;;;2.17;1.97;;;5.10;99.90;;;;;;5092829;28;20201;-56
2023/10/17 01:29:12;;;;;;;2.93;2.37;;;5.10;99.90;;;;;;5092694;28;20226;-56
2023/10/17 01:31:42;;;;;;;3.27;2.93;;;5.10;99.90;;;;;;5092702;28;20740;-56
2023/10/17 01:34:09;;;;;;;2.93;2.73;;;5.10;99.90;;;;;;5090817;28;20214;-55
2023/10/17 01:36:37;;;;;;;2.40;2.20;;;5.00;99.90;;;;;;5084786;28;20386;-56
2023/10/17 01:39:06;;;;;;;2.30;2.17;;;5.10;99.90;;;;;;5094410;28;20230;-55
2023/10/17 01:41:35;;;;;;;2.67;2.50;;;5.00;99.90;;;;;;5094725;28;20291;-55
2023/10/17 01:44:02;;;;;;;2.77;2.53;;;5.00;99.90;;;;;;5094026;28;20721;-56
2023/10/17 01:46:29;;;;;;;2.60;2.40;;;5.00;99.90;;;;;;5089294;28;20254;-56
2023/10/17 01:49:00;;;;;;;5.00;2.57;;;5.00;99.90;;;;;;5089146;28;20718;-56
2023/10/17 01:51:28;;;;;;;2.87;2.67;;;4.90;99.90;;;;;;5090160;28;20283;-55
2023/10/17 01:53:55;;;;;;;3.47;2.93;;;4.90;99.90;;;;;;5088453;28;20219;-55
2023/10/17 01:56:26;;;;;;;4.63;2.83;;;4.90;99.90;;;;;;5094187;28;20203;-56
2023/10/17 01:58:59;;;;;;;3.20;2.90;;;4.90;99.90;;;;;;5093110;28;20217;-55
2023/10/17 02:01:29;;;;;;;3.03;2.67;;;4.90;99.90;;;;;;5085538;28;20211;-56
2023/10/17 02:04:02;;;;;;;3.47;3.20;;;4.90;99.90;;;;;;5093764;28;20206;-55
2023/10/17 02:06:30;;;;;;;3.23;2.90;;;4.80;99.90;;;;;;5093454;28;20597;-56
2023/10/17 02:08:58;;;;;;;4.63;3.10;;;4.80;99.90;;;;;;5089379;28;20215;-56
2023/10/17 02:11:26;;;;;;;3.67;3.37;;;4.70;99.90;;;;;;5091914;28;20585;-55
2023/10/17 02:13:56;;;;;;;3.37;2.80;;;4.70;99.90;;;;;;5085028;28;20257;-56
2023/10/17 02:16:24;;;;;;;4.23;2.97;;;4.80;99.90;;;;;;5093600;28;20739;-55
2023/10/17 02:18:51;;;;;;;2.90;2.57;;;4.80;99.90;;;;;;5093993;28;20319;-56
2023/10/17 02:21:21;;;;;;;4.33;3.20;;;4.80;99.90;;;;;;5091015;28;20247;-57
2023/10/17 02:23:51;;;;;;;3.17;2.90;;;4.70;99.90;;;;;;5089969;28;20195;-56
2023/10/17 02:26:22;;;;;;;2.90;2.70;;;4.70;99.90;;;;;;5091962;28;20200;-56
2023/10/17 02:28:54;;;;;;;2.73;2.53;;;4.70;99.90;;;;;;5093652;28;20228;-55
2023/10/17 02:31:27;;;;;;;4.37;4.07;;;4.70;99.90;;;;;;5093646;28;20210;-56
2023/10/17 02:33:55;;;;;;;2.90;2.70;;;4.60;99.90;;;;;;5092997;28;20274;-56
2023/10/17 02:36:22;;;;;;;3.33;3.13;;;4.60;99.90;;;;;;5089976;28;20207;-56
2023/10/17 02:38:50;;;;;;;4.97;3.10;;;4.60;99.90;;;;;;5091902;28;20267;-55
2023/10/17 02:41:19;;;;;;;3.27;3.07;;;4.50;99.90;;;;;;5093470;28;20206;-56
2023/10/17 02:43:46;;;;;;;3.70;3.40;;;4.50;99.90;;;;;;5092855;28;20744;-55
2023/10/17 02:46:15;;;;;;;4.57;3.23;;;4.50;99.90;;;;;;5093274;28;20588;-56
2023/10/17 02:48:45;;;;;;;2.57;2.47;;;4.60;99.90;;;;;;5091281;28;20216;-55
2023/10/17 02:51:33;;;;;;;2.73;2.50;;;4.60;99.90;;;;;;5084546;28;20225;-55
2023/10/17 02:54:05;;;;;;;3.67;3.30;;;4.60;99.90;;;;;;5082797;28;20704;-56
2023/10/17 02:56:36;;;;;;;3.67;3.37;;;4.60;99.90;;;;;;5093022;28;20695;-55
2023/10/17 02:59:06;;;;;;;2.83;2.60;;;4.60;99.90;;;;;;5092659;28;20236;-56
2023/10/17 03:01:37;;;;;;;3.23;2.93;;;4.70;99.90;;;;;;5091714;28;20202;-56
2023/10/17 03:04:09;;;;;;;2.20;2.10;;;4.80;99.90;;;;;;5092607;28;20223;-56
2023/10/17 03:06:38;;;;;;;3.10;2.83;;;4.90;99.90;;;;;;5072673;28;20768;-56
2023/10/17 03:12:19;;;;;;;3.27;3.07;;;5.00;99.90;;;;;;5088213;28;20606;-56
2023/10/17 03:17:30;;;;;;;2.57;2.10;;;5.00;99.90;;;;;;5088093;28;20266;-55
2023/10/17 03:19:57;;;;;;;4.20;2.80;;;4.90;99.90;;;;;;5088048;28;20218;-55
2023/10/17 03:22:27;;;;;;;4.87;2.97;;;4.90;99.90;;;;;;5088069;28;20620;-56
2023/10/17 03:25:01;;;;;;;2.43;2.30;;;4.80;99.90;;;;;;5086519;28;20206;-55
2023/10/17 03:27:36;;;;;;;3.30;3.00;;;4.90;99.90;;;;;;5080504;28;20200;-56
2023/10/17 03:30:05;;;;;;;3.50;2.80;;;4.90;99.90;;;;;;5087771;28;20209;-56
2023/10/17 03:32:34;;;;;;;3.10;2.87;;;4.90;99.90;;;;;;5087857;28;20621;-56
2023/10/17 03:35:02;;;;;;;3.37;3.07;;;5.00;99.90;;;;;;5086760;28;20706;-56
2023/10/17 03:37:29;;;;;;;3.73;3.43;;;5.00;99.90;;;;;;5077723;28;20209;-55
2023/10/17 03:40:00;;;;;;;2.40;2.20;;;5.00;99.90;;;;;;5075624;28;20264;-55
2023/10/17 03:42:43;;;;;;;4.67;3.03;;;5.10;99.90;;;;;;5071091;28;20281;-55
2023/10/17 03:45:16;;;;;;;3.27;3.07;;;5.10;99.90;;;;;;5075586;28;20515;-57
2023/10/17 03:47:47;;;;;;;3.50;3.40;;;5.10;99.90;;;;;;5074308;28;20251;-55
2023/10/17 03:50:31;;;;;;;3.90;3.60;;;5.20;99.90;;;;;;5073926;28;20319;-55
2023/10/17 03:53:04;;;;;;;4.20;3.80;;;5.20;99.90;;;;;;5082439;28;20232;-55
2023/10/17 03:55:32;;;;;;;5.17;3.47;;;5.20;99.90;;;;;;5084223;28;20259;-56
2023/10/17 03:58:08;;;;;;;3.87;3.57;;;5.20;99.90;;;;;;5085801;28;20831;-56
2023/10/17 04:00:41;;;;;;;3.53;3.33;;;5.20;99.90;;;;;;5070135;28;20241;-55
2023/10/17 04:03:18;;;;;;;4.57;4.37;;;5.30;99.90;;;;;;5086641;28;20518;-56
2023/10/17 04:05:49;;;;;;;4.23;4.00;;;5.30;99.90;;;;;;5074744;28;20629;-55
2023/10/17 04:08:17;;;;;;;4.53;4.00;;;5.30;99.90;;;;;;5077400;28;20765;-55
2023/10/17 04:10:51;;;;;;;7.90;4.30;;;5.30;99.90;;;;;;5072371;28;20306;-55
2023/10/17 04:13:34;;;;;;;11.70;9.93;;;5.30;99.90;;;;;;5065185;28;20211;-56
2023/10/17 04:16:10;;;;;;;6.97;6.37;;;5.30;99.90;;;;;;5068753;28;20213;-55
2023/10/17 04:18:37;;;;;;;6.43;5.93;;;5.30;99.90;;;;;;5072969;28;20231;-55
2023/10/17 04:21:17;;;;;;;9.10;5.33;;;5.40;99.90;;;;;;5070064;28;20197;-55
2023/10/17 04:23:49;;;;;;;5.93;5.33;;;5.40;99.90;;;;;;5067117;28;20223;-55
2023/10/17 04:26:19;;;;;;;5.40;4.97;;;5.40;99.90;;;;;;5066392;28;20737;-55
2023/10/17 04:28:49;;;;;;;8.40;5.40;;;5.40;99.90;;;;;;5059472;28;20228;-55
2023/10/17 04:31:25;;;;;;;8.30;5.80;;;5.40;99.90;;;;;;5064042;28;20271;-56
2023/10/17 04:33:56;;;;;;;5.47;5.07;;;5.50;99.90;;;;;;5053708;28;20277;-55
2023/10/17 04:36:25;;;;;;;5.77;5.27;;;5.50;99.90;;;;;;5056134;28;20203;-55
2023/10/17 04:41:41;;;;;;;5.63;4.40;;;5.50;99.90;;;;;;5064689;28;20549;-55
2023/10/17 04:44:16;;;;;;;5.30;4.90;;;5.50;99.90;;;;;;5067689;28;20343;-55
2023/10/17 04:46:50;;;;;;;5.77;5.20;;;5.50;99.90;;;;;;5062688;28;20576;-55
2023/10/17 04:49:21;;;;;;;5.80;5.10;;;5.50;99.90;;;;;;5065340;28;20620;-55
2023/10/17 04:51:52;;;;;;;26.80;4.83;;;5.50;99.90;;;;;;5053503;28;20705;-55
2023/10/17 04:54:22;;;;;;;6.10;5.30;;;5.60;99.90;;;;;;5054367;28;20222;-55
2023/10/17 04:57:00;;;;;;;5.53;4.70;;;5.60;99.90;;;;;;5052526;28;20202;-55
2023/10/17 04:59:41;;;;;;;5.87;5.13;;;5.60;99.90;;;;;;5056002;28;20276;-55
2023/10/17 05:02:35;;;;;;;7.97;5.10;;;5.60;99.90;;;;;;5059643;28;20283;-55
2023/10/17 05:08:05;;;;;;;4.90;4.50;;;5.70;99.90;;;;;;5071643;28;20297;-57
2023/10/17 06:19:15;;;;;;;8.00;6.10;;;5.30;99.90;;;;;;5055260;28;20258;-63
2023/10/17 06:27:12;;;;;;;6.27;5.67;;;5.50;99.90;;;;;;5057045;28;20199;-61
2023/10/17 06:35:20;;;;;;;9.40;7.67;;;5.60;99.90;;;;;;5051991;28;20215;-61
2023/10/17 06:37:49;;;;;;;11.60;8.77;;;5.70;99.90;;;;;;5060728;28;20222;-61
2023/10/17 06:40:17;;;;;;;17.20;9.50;;;5.80;99.90;;;;;;5063909;28;20207;-61
2023/10/17 06:42:49;;;;;;;12.03;10.33;;;5.80;99.90;;;;;;5063900;28;20194;-61
2023/10/17 06:45:18;;;;;;;12.80;8.87;;;5.90;99.90;;;;;;5056759;28;20742;-59
2023/10/17 06:47:47;;;;;;;12.03;7.93;;;6.00;99.90;;;;;;5053359;28;20226;-59
2023/10/17 06:53:03;;;;;;;7.90;6.07;;;6.10;99.90;;;;;;5054067;28;20199;-59
2023/10/17 06:55:38;;;;;;;5.27;4.87;;;6.20;99.90;;;;;;5053558;28;20235;-58
2023/10/17 06:58:09;;;;;;;6.63;5.43;;;6.20;99.90;;;;;;5052197;28;20724;-63
2023/10/17 07:00:49;;;;;;;7.13;6.47;;;6.20;99.90;;;;;;5062501;28;20762;-61
2023/10/17 07:03:24;;;;;;;8.13;7.33;;;6.30;99.90;;;;;;5058173;28;20285;-65
2023/10/17 07:05:55;;;;;;;10.23;7.53;;;6.30;99.90;;;;;;5055607;28;20198;-62
2023/10/17 07:08:30;;;;;;;8.00;6.70;;;6.30;99.90;;;;;;5058222;28;20223;-62
2023/10/17 07:11:02;;;;;;;10.50;6.40;;;6.30;99.90;;;;;;5049896;28;20227;-61
2023/10/17 07:13:54;;;;;;;8.63;6.17;;;6.30;99.90;;;;;;5052359;28;20286;-61
2023/10/17 07:16:26;;;;;;;8.37;5.40;;;6.30;99.90;;;;;;5064912;28;20225;-61
2023/10/17 07:18:53;;;;;;;6.17;5.67;;;6.30;99.90;;;;;;5070066;28;20228;-55
2023/10/17 07:21:23;;;;;;;6.13;5.53;;;6.40;99.90;;;;;;5070252;28;20196;-58
2023/10/17 07:23:55;;;;;;;8.73;4.67;;;6.50;99.90;;;;;;5069807;28;20661;-58
2023/10/17 07:26:38;;;;;;;5.97;5.17;;;6.60;99.90;;;;;;5066329;28;20225;-59
2023/10/17 07:29:06;;;;;;;5.00;4.40;;;6.70;99.90;;;;;;5056492;28;20263;-59
2023/10/17 07:31:34;;;;;;;6.27;4.83;;;6.80;99.90;;;;;;5067729;28;20223;-59
2023/10/17 07:34:16;;;;;;;7.43;4.60;;;6.80;99.90;;;;;;5066969;28;20238;-59
2023/10/17 07:36:47;;;;;;;3.97;3.67;;;6.80;99.90;;;;;;5059101;28;20681;-58
2023/10/17 07:39:29;;;;;;;6.17;4.07;;;7.00;99.90;;;;;;5067761;28;20219;-58
2023/10/17 07:41:57;;;;;;;7.60;5.33;;;7.10;99.90;;;;;;5067302;28;20200;-58
2023/10/17 07:44:26;;;;;;;5.20;4.60;;;7.10;99.90;;;;;;5060606;28;20203;-58
2023/10/17 07:47:08;;;;;;;4.50;4.10;;;7.40;99.90;;;;;;5069957;28;20674;-59
2023/10/17 07:49:36;;;;;;;5.43;5.03;;;7.50;99.90;;;;;;5064378;28;20653;-58
2023/10/17 07:52:12;;;;;;;5.33;4.87;;;7.80;99.90;;;;;;5064518;28;20310;-58
2023/10/17 07:54:45;;;;;;;4.23;4.03;;;7.90;99.90;;;;;;5058463;28;20263;-58
2023/10/17 07:57:17;;;;;;;4.60;4.10;;;8.00;99.90;;;;;;5054790;28;20283;-59
2023/10/17 07:59:51;;;;;;;4.50;4.20;;;8.20;99.90;;;;;;5066266;28;20198;-58
2023/10/17 08:02:20;;;;;;;7.67;5.07;;;8.20;99.90;;;;;;5056181;28;20279;-58
2023/10/17 08:04:49;;;;;;;6.70;4.93;;;8.30;99.90;;;;;;5053501;28;20203;-59
2023/10/17 08:07:20;;;;;;;6.27;5.07;;;8.30;99.90;;;;;;5058940;28;20641;-59
2023/10/17 08:09:56;;;;;;;4.77;4.43;;;8.40;99.90;;;;;;5073429;28;20642;-58
2023/10/17 08:12:24;;;;;;;4.83;4.53;;;8.50;99.90;;;;;;5072878;28;20223;-58
2023/10/17 08:14:58;;;;;;;6.43;5.83;;;8.60;99.90;;;;;;5073438;28;20199;-59
2023/10/17 08:17:28;;;;;;;8.67;5.53;;;8.70;99.90;;;;;;5071686;28;20204;-59
2023/10/17 08:20:08;;;;;;;6.33;5.73;;;8.70;99.90;;;;;;5060006;28;20239;-59
2023/10/17 08:25:27;;;;;;;5.77;5.23;;;9.00;99.90;;;;;;5053124;28;20203;-59
2023/10/17 08:27:54;;;;;;;9.73;6.50;;;9.10;99.90;;;;;;5052393;28;20222;-59
2023/10/17 08:30:26;;;;;;;7.20;6.57;;;9.20;99.90;;;;;;5053981;28;20193;-59
2023/10/17 08:32:55;;;;;;;6.83;6.03;;;9.20;99.90;;;;;;5073017;28;20309;-59
2023/10/17 08:35:28;;;;;;;8.07;6.33;;;9.30;99.90;;;;;;5073070;28;20563;-58
2023/10/17 08:37:55;;;;;;;7.20;6.00;;;9.30;99.90;;;;;;5059756;28;20599;-59
2023/10/17 08:40:40;;;;;;;6.30;5.50;;;9.40;99.90;;;;;;5061288;28;20192;-59
2023/10/17 08:43:10;;;;;;;7.37;4.90;;;9.50;99.90;;;;;;5072372;28;20656;-59
2023/10/17 08:45:39;;;;;;;6.77;5.30;;;10.20;99.90;;;;;;5072755;28;20260;-59
2023/10/17 08:48:08;;;;;;;4.57;4.27;;;11.20;99.90;;;;;;5072656;28;20259;-59
2023/10/17 08:50:39;;;;;;;6.17;5.57;;;12.50;99.90;;;;;;5072578;28;20199;-59
2023/10/17 08:53:12;;;;;;;5.57;5.13;;;13.20;99.90;;;;;;5062223;28;20487;-59
2023/10/17 08:55:41;;;;;;;6.93;6.33;;;13.70;99.90;;;;;;5061024;28;20208;-59
2023/10/17 08:58:09;;;;;;;7.10;6.40;;;14.20;99.90;;;;;;5065001;28;20252;-59
2023/10/17 09:03:23;;;;;;;8.63;7.73;;;14.80;99.90;;;;;;5064460;28;20227;-59
2023/10/17 09:06:06;;;;;;;10.00;8.83;;;14.90;99.90;;;;;;5072194;28;20281;-59
2023/10/17 09:08:50;;;;;;;9.37;8.47;;;15.40;99.90;;;;;;5071490;28;20221;-59
2023/10/17 09:11:29;;;;;;;10.97;9.83;;;15.70;99.90;;;;;;5060185;28;20220;-60
2023/10/17 09:14:15;;;;;;;12.77;11.50;;;16.00;99.90;;;;;;5054557;28;20817;-59
2023/10/17 09:16:49;;;;;;;13.53;12.17;;;15.90;99.90;;;;;;5072100;28;20640;-58
2023/10/17 09:19:20;;;;;;;15.77;11.30;;;15.70;99.90;;;;;;5070865;28;20224;-59
2023/10/17 09:21:49;;;;;;;11.83;10.63;;;15.60;99.90;;;;;;5071193;28;20209;-61
2023/10/17 09:24:35;;;;;;;14.00;12.37;;;15.60;99.90;;;;;;5071205;28;20246;-62
2023/10/17 09:27:10;;;;;;;13.70;12.40;;;16.00;99.90;;;;;;5061804;28;20211;-61
2023/10/17 09:29:45;;;;;;;13.40;12.10;;;16.40;99.90;;;;;;5051939;28;20308;-61
2023/10/17 09:32:12;;;;;;;12.77;11.13;;;15.80;99.90;;;;;;5061596;28;20228;-62
2023/10/17 09:34:40;;;;;;;13.93;12.53;;;15.80;99.90;;;;;;5071420;28;20204;-61
2023/10/17 09:37:13;;;;;;;14.03;10.90;;;15.70;99.90;;;;;;5071532;28;20751;-62
2023/10/17 09:39:47;;;;;;;15.07;12.60;;;15.40;99.90;;;;;;5071478;28;20244;-62
2023/10/17 09:42:16;;;;;;;15.00;13.30;;;14.90;99.90;;;;;;5066573;28;20207;-62
2023/10/17 09:44:43;;;;;;;13.73;12.33;;;15.00;99.90;;;;;;5054996;28;20204;-61
2023/10/17 09:47:10;;;;;;;14.03;11.47;;;15.30;99.90;;;;;;5071321;28;20203;-60
2023/10/17 09:49:44;;;;;;;16.30;12.70;;;15.70;99.90;;;;;;5065585;28;20611;-60
2023/10/17 09:52:14;;;;;;;15.67;12.10;;;16.10;99.90;;;;;;5071245;28;20220;-60
2023/10/17 09:54:43;;;;;;;15.97;12.10;;;16.30;99.90;;;;;;5071266;28;20642;-60
2023/10/17 09:57:14;;;;;;;12.83;10.83;;;16.40;99.90;;;;;;5071259;28;20284;-59
2023/10/17 10:00:00;;;;;;;15.27;13.67;;;16.50;99.90;;;;;;5059989;28;20217;-60
2023/10/17 10:02:28;;;;;;;13.20;12.10;;;16.60;99.90;;;;;;5063818;28;20201;-60
2023/10/17 10:04:55;;;;;;;14.50;13.00;;;16.50;99.90;;;;;;5066336;28;20202;-60
2023/10/17 10:07:24;;;;;;;16.97;12.80;;;16.30;99.90;;;;;;5062342;28;20244;-58
2023/10/17 10:09:51;;;;;;;13.77;12.20;;;15.70;99.90;;;;;;5070952;28;20193;-57
2023/10/17 10:12:18;;;;;;;14.00;12.50;;;15.10;99.90;;;;;;5070647;28;20217;-57
2023/10/17 10:14:49;;;;;;;15.60;12.83;;;14.80;99.90;;;;;;5062460;28;20244;-58
2023/10/17 10:17:17;;;;;;;14.00;11.93;;;14.60;99.90;;;;;;5070909;28;20204;-57
2023/10/17 10:20:00;;;;;;;12.30;11.03;;;14.60;99.90;;;;;;5070332;28;20278;-57
2023/10/17 10:22:52;;;;;;;14.20;12.80;;;14.80;99.90;;;;;;5069831;28;20203;-58
2023/10/17 10:25:20;;;;;;;13.30;11.90;;;14.60;99.90;;;;;;5067520;28;20193;-58
2023/10/17 10:27:49;;;;;;;15.47;12.03;;;14.60;99.90;;;;;;5059013;28;20283;-57
2023/10/17 10:30:36;;;;;;;13.43;11.70;;;14.50;99.90;;;;;;5058619;28;20204;-57
2023/10/17 10:33:04;;;;;;;14.00;12.37;;;14.50;99.90;;;;;;5051815;28;20588;-58
2023/10/17 10:35:33;;;;;;;17.50;13.23;;;14.10;99.90;;;;;;5058797;28;20255;-57
2023/10/17 10:38:00;;;;;;;14.23;12.47;;;13.90;99.90;;;;;;5050499;28;20304;-57
2023/10/17 10:40:30;;;;;;;14.13;11.63;;;13.80;99.90;;;;;;5060511;28;20231;-57
2023/10/17 10:42:59;;;;;;;16.17;13.23;;;13.60;99.90;;;;;;5049878;28;20221;-57
2023/10/17 10:45:35;;;;;;;14.43;12.90;;;13.20;99.90;;;;;;5058661;28;20205;-57
2023/10/17 10:48:07;;;;;;;17.37;13.63;;;13.10;99.90;;;;;;5050587;28;20227;-57
2023/10/17 10:50:35;;;;;;;15.37;12.93;;;12.70;99.90;;;;;;5050901;28;20244;-57
2023/10/17 10:53:03;;;;;;;16.00;14.10;;;12.60;99.90;;;;;;5048939;28;20259;-57
2023/10/17 10:55:31;;;;;;;17.07;14.13;;;12.40;99.90;;;;;;5058330;28;20211;-57
2023/10/17 10:58:03;;;;;;;12.90;11.40;;;12.20;99.90;;;;;;5050161;28;20307;-57
2023/10/17 11:00:31;;;;;;;24.53;14.50;;;12.20;99.90;;;;;;5055569;28;20206;-57
2023/10/17 11:02:59;;;;;;;14.90;13.30;;;12.20;99.90;;;;;;5058083;28;20228;-57
2023/10/17 11:05:27;;;;;;;15.77;13.90;;;12.30;99.90;;;;;;5053668;28;20224;-57
2023/10/17 11:08:01;;;;;;;18.43;13.87;;;12.20;99.90;;;;;;5054455;28;20301;-57
2023/10/17 11:10:29;;;;;;;16.67;14.57;;;12.20;99.90;;;;;;5059740;28;20769;-57
2023/10/17 11:12:56;;;;;;;19.17;14.43;;;12.00;99.90;;;;;;5067509;28;20227;-58
2023/10/17 11:15:26;;;;;;;14.87;13.37;;;12.20;99.90;;;;;;5066213;28;20203;-57
2023/10/17 11:18:06;;;;;;;17.73;15.23;;;12.20;99.90;;;;;;5058152;28;20227;-57
2023/10/17 11:20:35;;;;;;;16.13;14.23;;;12.40;99.90;;;;;;5057744;28;20555;-57
2023/10/17 11:23:05;;;;;;;17.90;15.57;;;12.40;99.90;;;;;;5060423;28;20197;-57
2023/10/17 11:25:34;;;;;;;19.23;14.43;;;12.30;99.90;;;;;;5069228;28;20197;-57
2023/10/17 11:28:06;;;;;;;14.93;13.00;;;12.20;99.90;;;;;;5064005;28;20224;-58
2023/10/17 11:30:35;;;;;;;21.03;14.37;;;12.00;99.90;;;;;;5067368;28;20202;-57
2023/10/17 11:33:04;;;;;;;19.33;15.47;;;12.00;99.90;;;;;;5072175;28;20227;-57
2023/10/17 11:35:34;;;;;;;16.27;14.50;;;11.90;99.90;;;;;;5072075;28;20259;-58
2023/10/17 11:38:01;;;;;;;18.70;15.10;;;12.10;99.90;;;;;;5074321;28;20222;-58
2023/10/17 11:40:38;;;;;;;19.40;15.27;;;12.10;99.90;;;;;;5071604;28;20199;-57
2023/10/17 11:43:16;;;;;;;19.87;15.13;;;12.10;99.90;;;;;;5073843;28;20207;-58
2023/10/17 11:45:43;;;;;;;20.03;14.90;;;12.20;99.90;;;;;;5069384;28;20283;-57
2023/10/17 11:48:30;;;;;;;22.30;15.00;;;12.20;99.90;;;;;;5062370;28;20231;-57
2023/10/17 11:51:12;;;;;;;19.10;14.87;;;12.20;99.90;;;;;;5066366;28;20199;-58
2023/10/17 11:54:07;;;;;;;19.03;14.00;;;12.20;99.90;;;;;;5064778;28;20219;-57
2023/10/17 11:56:35;;;;;;;19.97;15.70;;;12.10;99.90;;;;;;5072577;28;20294;-57
2023/10/17 11:59:03;;;;;;;15.47;13.43;;;12.20;99.90;;;;;;5070936;28;20772;-57
2023/10/17 12:01:33;;;;;;;19.17;14.40;;;12.20;99.90;;;;;;5073499;28;20210;-57
2023/10/17 12:04:06;;;;;;;20.10;14.90;;;12.20;99.90;;;;;;5073360;28;20228;-57
2023/10/17 12:06:34;;;;;;;19.50;14.57;;;12.20;99.90;;;;;;5073909;28;20760;-58
2023/10/17 12:09:17;;;;;;;17.27;14.63;;;12.30;99.90;;;;;;5069091;28;20652;-58
2023/10/17 12:11:46;;;;;;;16.90;13.80;;;12.30;99.90;;;;;;5072082;28;20207;-57
2023/10/17 12:14:19;;;;;;;22.77;15.63;;;12.30;99.90;;;;;;5073468;28;20217;-57
2023/10/17 12:16:47;;;;;;;17.23;15.43;;;12.10;99.90;;;;;;5073313;28;20567;-58
2023/10/17 12:19:16;;;;;;;17.03;14.20;;;12.30;99.90;;;;;;5073449;28;20228;-57
2023/10/17 12:21:47;;;;;;;17.57;14.67;;;12.20;99.90;;;;;;5064984;28;20539;-57
2023/10/17 12:24:16;;;;;;;17.10;14.60;;;12.10;99.90;;;;;;5069386;28;20694;-58
2023/10/17 12:26:45;;;;;;;16.70;14.33;;;12.10;99.90;;;;;;5073187;28;20629;-57
2023/10/17 12:29:12;;;;;;;18.60;13.80;;;11.90;99.90;;;;;;5073283;28;20272;-58
2023/10/17 12:31:40;;;;;;;16.47;13.67;;;11.90;99.90;;;;;;5070835;28;20274;-57
2023/10/17 12:34:07;;;;;;;21.00;14.27;;;11.90;99.90;;;;;;5065075;28;20909;-58
2023/10/17 12:36:35;;;;;;;17.83;14.33;;;12.00;99.90;;;;;;5061854;28;20681;-57
2023/10/17 12:39:07;;;;;;;16.07;13.53;;;12.10;99.90;;;;;;5071171;28;20639;-57
2023/10/17 12:41:35;;;;;;;18.13;14.80;;;12.20;99.90;;;;;;5072959;28;20228;-58
2023/10/17 12:44:02;;;;;;;16.50;13.93;;;12.20;99.90;;;;;;5068514;28;20204;-57
2023/10/17 12:46:29;;;;;;;16.20;13.23;;;12.40;99.90;;;;;;5060538;28;20262;-57
2023/10/17 12:48:56;;;;;;;17.43;15.37;;;12.30;99.90;;;;;;5061122;28;20219;-57
2023/10/17 12:51:23;;;;;;;15.87;14.10;;;12.40;99.90;;;;;;5065956;28;20200;-58
2023/10/17 12:53:50;;;;;;;16.10;12.73;;;12.40;99.90;;;;;;5067690;28;20274;-58
2023/10/17 12:56:20;;;;;;;16.37;14.23;;;12.50;99.90;;;;;;5062188;28;20660;-58
2023/10/17 12:58:47;;;;;;;19.33;13.30;;;12.60;99.90;;;;;;5060163;28;20605;-58
2023/10/17 13:01:14;;;;;;;16.10;12.97;;;12.70;99.90;;;;;;5065432;28;20204;-57
2023/10/17 13:03:41;;;;;;;18.57;13.50;;;12.80;99.90;;;;;;5072119;28;20608;-58
2023/10/17 13:06:08;;;;;;;14.50;13.10;;;12.70;99.90;;;;;;5072687;28;20254;-57
2023/10/17 13:08:36;;;;;;;17.27;14.23;;;12.60;99.90;;;;;;5072395;28;20287;-58
2023/10/17 13:11:03;;;;;;;18.40;14.80;;;12.80;99.90;;;;;;5072444;28;20760;-58
2023/10/17 13:13:32;;;;;;;18.93;14.57;;;12.80;99.90;;;;;;5065909;28;20217;-58
2023/10/17 13:15:59;;;;;;;14.83;13.23;;;12.70;99.90;;;;;;5067545;28;20741;-58
2023/10/17 13:18:28;;;;;;;14.50;13.00;;;12.80;99.90;;;;;;5072219;28;20227;-57
2023/10/17 13:21:02;;;;;;;19.73;14.30;;;12.70;99.90;;;;;;5072343;28;20253;-58
2023/10/17 13:23:29;;;;;;;17.00;13.67;;;12.70;99.90;;;;;;5072179;28;20222;-58
2023/10/17 13:25:58;;;;;;;17.67;13.67;;;12.60;99.90;;;;;;5071196;28;20211;-57
2023/10/17 13:28:25;;;;;;;17.00;13.60;;;12.60;99.90;;;;;;5068236;28;20590;-58
2023/10/17 13:30:58;;;;;;;17.03;14.40;;;12.60;99.90;;;;;;5066793;28;20207;-58
2023/10/17 13:33:25;;;;;;;16.37;13.00;;;12.40;99.90;;;;;;5071771;28;20216;-58
2023/10/17 13:35:52;;;;;;;17.53;14.90;;;12.50;99.90;;;;;;5070849;28;20210;-58
2023/10/17 13:38:20;;;;;;;16.17;14.00;;;12.50;99.90;;;;;;5070099;28;20781;-58
2023/10/17 13:40:47;;;;;;;14.37;12.87;;;12.50;99.90;;;;;;5065336;28;20195;-58
2023/10/17 13:43:14;;;;;;;17.97;13.00;;;12.50;99.90;;;;;;5066531;28;20634;-58
2023/10/17 13:45:42;;;;;;;14.90;13.17;;;12.50;99.90;;;;;;5070180;28;20636;-58
2023/10/17 13:48:10;;;;;;;15.27;13.67;;;12.50;99.90;;;;;;5069475;28;20326;-58
2023/10/17 13:50:37;;;;;;;14.23;12.67;;;12.50;99.90;;;;;;5070230;28;20563;-58
2023/10/17 13:53:09;;;;;;;14.17;12.50;;;12.50;99.90;;;;;;5068584;28;20261;-58
2023/10/17 13:55:38;;;;;;;15.27;12.57;;;12.50;99.90;;;;;;5069448;28;20199;-58
2023/10/17 13:58:05;;;;;;;16.97;14.33;;;12.50;99.90;;;;;;5067715;28;20226;-58
2023/10/17 14:00:42;;;;;;;14.97;13.40;;;12.40;99.90;;;;;;5070002;28;20261;-58
2023/10/17 14:03:12;;;;;;;15.80;13.70;;;12.40;99.90;;;;;;5068716;28;20219;-58
2023/10/17 14:05:42;;;;;;;18.70;14.03;;;12.20;99.90;;;;;;5070278;28;20201;-58
2023/10/17 14:08:13;;;;;;;15.03;13.43;;;12.30;99.90;;;;;;5071504;28;20267;-58
2023/10/17 14:10:43;;;;;;;17.83;14.03;;;12.20;99.90;;;;;;5069641;28;20219;-58
2023/10/17 14:13:12;;;;;;;17.70;14.47;;;12.10;99.90;;;;;;5066641;28;20730;-58
2023/10/17 14:15:39;;;;;;;17.13;15.33;;;12.10;99.90;;;;;;5066081;28;20651;-58
2023/10/17 14:18:13;;;;;;;18.33;13.87;;;12.10;99.90;;;;;;5062841;28;20224;-58
2023/10/17 14:21:04;;;;;;;16.80;13.63;;;12.00;99.90;;;;;;5069018;28;20208;-58
2023/10/17 14:23:32;;;;;;;13.83;12.43;;;12.00;99.90;;;;;;5067724;28;20294;-57
2023/10/17 14:26:03;;;;;;;19.73;13.87;;;12.10;99.90;;;;;;5069662;28;20365;-58
2023/10/17 14:28:30;;;;;;;18.63;14.87;;;12.10;99.90;;;;;;5065669;28;20218;-59
2023/10/17 14:30:56;;;;;;;18.67;15.13;;;12.10;99.90;;;;;;5069651;28;20201;-58
2023/10/17 14:33:23;;;;;;;15.37;13.03;;;12.10;99.90;;;;;;5069323;28;20251;-58
2023/10/17 14:35:52;;;;;;;19.27;14.67;;;11.90;99.90;;;;;;5071237;28;20193;-57
2023/10/17 14:38:18;;;;;;;18.03;15.87;;;11.80;99.90;;;;;;5067011;28;20224;-58
2023/10/17 14:40:45;;;;;;;18.03;12.33;;;11.70;99.90;;;;;;5069664;28;20262;-58
2023/10/17 14:43:14;;;;;;;18.13;14.60;;;11.70;99.90;;;;;;5068408;28;20193;-58